Weather History for Rockland, ME

Change the Weather History Date:

Sunday, August 25, 2013

  Actual Average Record
Temperature  
Mean Temperature 60 °F -  
Max Temperature 71 °F 70 °F 80 °F (2007)
Min Temperature 48 °F 54 °F 48 °F (2003)
Degree Days  
Heating Degree Days 6    
Growing Degree Days 10 (Base 50)    
Moisture  
Dew Point 53 °F    
Average Humidity 76    
Maximum Humidity 100    
Minimum Humidity 49    
Precipitation  
Precipitation 0.00 in - - ()
Sea Level Pressure  
Sea Level Pressure 30.27 in    
Wind  
Wind Speed 4 mph (SSW)    
Max Wind Speed 14 mph    
Max Gust Speed -    
Visibility 10 miles    
Events      
Averages and records for this station are not official NWS values.
T = Trace of Precipitation, MM = Missing Value Source: NWS Daily Summary

Daily Weather History Graph

Daily Weather History Graph

Search for Another Location

Airport:

Trip Planner

Search our weather history database for the weather conditions in past years. The results will help you decide how hot, cold, wet, or windy it might be!

Date:

Astronomy

Aug. 25, 2013 Rise Set
Actual Time 5:51 AM EDT 7:24 PM EDT
Civil Twilight 5:21 AM EDT 7:54 PM EDT
Nautical Twilight 4:44 AM EDT 8:30 PM EDT
Astronomical Twilight 4:05 AM EDT 9:10 PM EDT
Moon 9:39 PM EDT (8/25) 11:03 AM EDT (8/25)
Length of Visible Light 14h 32m
Length of Day
13h 32m
Waning Gibbous, 76% of the Moon is Illuminated
Aug 25
Waning Gibbous
Aug 28
Last Quarter
Sep 5
New
Sep 12
First Quarter
Sep 19
Full

Hourly Weather History & Observations

Time (EDT) Temp. Dew Point Humidity Pressure Visibility Wind Dir Wind Speed Gust Speed Precip Events Conditions
12:15 AM 53.6 °F 51.8 °F 94% 30.30 in 10.0 mi West 4.6 mph - N/A   Clear
12:35 AM 53.6 °F 51.8 °F 94% 30.30 in 10.0 mi West 4.6 mph - N/A   Clear
12:55 AM 55.4 °F 51.8 °F 88% 30.30 in 10.0 mi West 5.8 mph - N/A   Clear
1:15 AM 53.6 °F 51.8 °F 94% 30.30 in 10.0 mi West 3.5 mph - N/A   Clear
1:35 AM 53.6 °F 50.0 °F 88% 30.29 in 10.0 mi WSW 4.6 mph - N/A   Clear
1:55 AM 51.8 °F 50.0 °F 94% 30.30 in 10.0 mi Calm Calm - N/A   Clear
2:15 AM 51.8 °F 51.8 °F 100% 30.29 in 10.0 mi Calm Calm - N/A   Clear
2:35 AM 51.8 °F 51.8 °F 100% 30.29 in 10.0 mi Calm Calm - N/A   Clear
2:55 AM 51.8 °F 50.0 °F 94% 30.28 in 10.0 mi West 4.6 mph - N/A   Clear
3:15 AM 48.2 °F 46.4 °F 93% 30.29 in 10.0 mi West 4.6 mph - N/A   Clear
3:35 AM 50.0 °F 48.2 °F 94% 30.29 in 10.0 mi West 6.9 mph - N/A   Clear
3:55 AM 51.8 °F 51.8 °F 100% 30.30 in 10.0 mi Calm Calm - N/A   Clear
4:15 AM 51.8 °F 48.2 °F 88% 30.30 in 10.0 mi Calm Calm - N/A   Clear
4:35 AM 51.8 °F 48.2 °F 88% 30.30 in 10.0 mi Calm Calm - N/A   Clear
4:55 AM 50.0 °F 48.2 °F 94% 30.30 in 10.0 mi Calm Calm - N/A   Clear
5:15 AM 50.0 °F 50.0 °F 100% 30.31 in 10.0 mi WNW 3.5 mph - N/A   Clear
5:35 AM 51.8 °F 50.0 °F 94% 30.32 in 10.0 mi WNW 4.6 mph - N/A   Clear
5:55 AM 48.2 °F 46.4 °F 93% 30.32 in 10.0 mi West 3.5 mph - N/A   Clear
6:15 AM 48.2 °F 48.2 °F 100% 30.33 in 10.0 mi West 3.5 mph - N/A   Clear
6:35 AM 48.2 °F 48.2 °F 100% 30.33 in 10.0 mi West 3.5 mph - N/A   Clear
6:55 AM 51.8 °F 50.0 °F 94% 30.34 in 10.0 mi West 4.6 mph - N/A   Clear
7:15 AM 55.4 °F 53.6 °F 94% 30.34 in 10.0 mi West 3.5 mph - N/A   Clear
7:35 AM 57.2 °F 55.4 °F 94% 30.35 in 10.0 mi West 3.5 mph - N/A   Clear
7:55 AM 60.8 °F 55.4 °F 82% 30.35 in 10.0 mi West 3.5 mph - N/A   Clear
8:15 AM 62.6 °F 55.4 °F 77% 30.35 in 10.0 mi West 3.5 mph - N/A   Clear
8:35 AM 64.4 °F 55.4 °F 73% 30.35 in 10.0 mi Calm Calm - N/A   Clear
8:55 AM 68.0 °F 53.6 °F 60% 30.34 in 10.0 mi NNE 3.5 mph - N/A   Clear
9:15 AM 69.8 °F 53.6 °F 56% 30.33 in 10.0 mi NE 3.5 mph - N/A   Clear
9:35 AM 69.8 °F 53.6 °F 56% 30.33 in 10.0 mi North 3.5 mph - N/A   Clear
9:55 AM 69.8 °F 53.6 °F 56% 30.33 in 10.0 mi ESE 3.5 mph - N/A   Clear
10:15 AM 69.8 °F 53.6 °F 56% 30.33 in 10.0 mi ESE 5.8 mph - N/A   Clear
10:35 AM 69.8 °F 55.4 °F 60% 30.32 in 10.0 mi East 4.6 mph - N/A   Clear
10:55 AM 71.6 °F 53.6 °F 53% 30.32 in 10.0 mi East 5.8 mph - N/A   Clear
11:15 AM 71.6 °F 53.6 °F 53% 30.31 in 10.0 mi ESE 8.1 mph - N/A   Clear
11:35 AM 71.6 °F 53.6 °F 53% 30.31 in 10.0 mi SE 5.8 mph - N/A   Clear
11:55 AM 71.6 °F 53.6 °F 53% 30.30 in 10.0 mi South 6.9 mph - N/A   Clear
12:15 PM 71.6 °F 53.6 °F 53% 30.29 in 10.0 mi South 8.1 mph - N/A   Clear
12:35 PM 71.6 °F 53.6 °F 53% 30.28 in 10.0 mi South 8.1 mph - N/A   Clear
12:55 PM 71.6 °F 51.8 °F 50% 30.28 in 10.0 mi South 9.2 mph - N/A   Clear
1:15 PM 71.6 °F 51.8 °F 50% 30.28 in 10.0 mi SSE 9.2 mph - N/A   Clear
1:35 PM 71.6 °F 51.8 °F 50% 30.27 in 10.0 mi SSE 9.2 mph - N/A   Clear
1:55 PM 71.6 °F 51.8 °F 50% 30.27 in 10.0 mi South 10.4 mph - N/A   Clear
2:15 PM 71.6 °F 51.8 °F 50% 30.27 in 10.0 mi South 9.2 mph - N/A   Clear
2:35 PM 69.8 °F 50.0 °F 49% 30.26 in 10.0 mi South 11.5 mph - N/A   Clear
2:55 PM 69.8 °F 50.0 °F 49% 30.26 in 10.0 mi SSE 11.5 mph - N/A   Clear
3:15 PM 69.8 °F 51.8 °F 53% 30.25 in 10.0 mi South 13.8 mph - N/A   Clear
3:35 PM 69.8 °F 51.8 °F 53% 30.25 in 10.0 mi South 9.2 mph - N/A   Clear
3:55 PM 71.6 °F 51.8 °F 50% 30.24 in 10.0 mi South 9.2 mph - N/A   Clear
4:15 PM 71.6 °F 51.8 °F 50% 30.24 in 10.0 mi South 10.4 mph - N/A   Clear
4:35 PM 71.6 °F 53.6 °F 53% 30.23 in 10.0 mi South 9.2 mph - N/A   Clear
4:55 PM 69.8 °F 53.6 °F 56% 30.23 in 10.0 mi South 8.1 mph - N/A   Clear
5:15 PM 69.8 °F 55.4 °F 60% 30.23 in 10.0 mi South 8.1 mph - N/A   Clear
5:35 PM 69.8 °F 55.4 °F 60% 30.23 in 10.0 mi South 6.9 mph - N/A   Clear
5:55 PM 69.8 °F 55.4 °F 60% 30.22 in 10.0 mi South 8.1 mph - N/A   Clear
6:15 PM 66.2 °F 57.2 °F 73% 30.22 in 10.0 mi South 6.9 mph - N/A   Clear
6:35 PM 64.4 °F 57.2 °F 77% 30.21 in 10.0 mi South 4.6 mph - N/A   Clear
6:55 PM 64.4 °F 57.2 °F 77% 30.20 in 10.0 mi SSW 4.6 mph - N/A   Clear
7:15 PM 62.6 °F 57.2 °F 82% 30.20 in 10.0 mi SSW 4.6 mph - N/A   Clear
7:35 PM 62.6 °F 57.2 °F 82% 30.20 in 10.0 mi South 3.5 mph - N/A   Clear
7:55 PM 62.6 °F 57.2 °F 82% 30.20 in 10.0 mi SW 3.5 mph - N/A   Clear
8:15 PM 62.6 °F 57.2 °F 82% 30.20 in 10.0 mi SSW 3.5 mph - N/A   Clear
8:35 PM 60.8 °F 57.2 °F 88% 30.20 in 10.0 mi SW 3.5 mph - N/A   Clear
8:55 PM 59.0 °F 55.4 °F 88% 30.20 in 10.0 mi WSW 3.5 mph - N/A   Clear
9:15 PM 57.2 °F 55.4 °F 94% 30.20 in 10.0 mi Calm Calm - N/A   Clear
9:35 PM 59.0 °F 55.4 °F 88% 30.19 in 10.0 mi Calm Calm - N/A   Clear
9:55 PM 59.0 °F 55.4 °F 88% 30.19 in 10.0 mi Calm Calm - N/A   Clear
10:15 PM 60.8 °F 53.6 °F 77% 30.19 in 10.0 mi Calm Calm - N/A   Clear
10:35 PM 60.8 °F 55.4 °F 82% 30.18 in 10.0 mi Calm Calm - N/A   Clear
10:55 PM 57.2 °F 53.6 °F 88% 30.18 in 10.0 mi Calm Calm - N/A   Clear
11:16 PM 57.2 °F 55.4 °F 94% 30.17 in 10.0 mi Calm Calm - N/A   Clear
11:35 PM 55.4 °F 53.6 °F 94% 30.17 in 10.0 mi Calm Calm - N/A   Clear
11:55 PM 55.4 °F 53.6 °F 94% 30.16 in 10.0 mi Calm Calm - N/A   Clear